Stanford in the Vale, United Kingdom
Current Conditions -  °F | °C
As of 2:50 PM on Sunday 21 Dec 2014 (Local Time) from EGVN Reporting Station
Drizzle Drizzle  
Wind Chill:   Ceiling: 800
Heat Index:   Visibility: 6mi
Dew Point:   Wind: 7mph
Humidity: 93%   Direction: 230°SW
Pressure: 30.21"   Gusts: NA
Location:  51.64°N, 1.51°W
Report Text: EGVN 211450Z 23006KT 9999 -DZ BKN008 OVC014 09/08 Q1023 NOSIG
Loading
Personal Weather Stations






























Interactive Weather Map New forecast layout! Learn more

10-Day Weather Forecast

Advertisements
Track Severe Weather on mobile